Time;durP1;ratioP1;P1;durP2;ratioP2;P2;SDS_P1;SDS_P2;PMS_P1;PMS_P2;Temp;Humidity;BMP_temperature;BMP_pressure;BME280_temperature;BME280_humidity;BME280_pressure;Samples;Min_cycle;Max_cycle;Signal;HPM_P1;HPM_P2
2022/01/04 00:00:18;;;;;;;8.57;3.33;;;;;;;7.19;94.97;100087.22;5008748;28;20034;-89
2022/01/04 00:02:43;;;;;;;9.70;3.65;;;;;;;7.08;95.31;100077.19;5016393;28;20029;-90
2022/01/04 00:05:10;;;;;;;9.05;3.35;;;;;;;7.12;95.48;100085.81;5008076;28;20034;-89
2022/01/04 00:07:35;;;;;;;8.68;3.58;;;;;;;7.09;95.85;100075.38;5023420;28;20017;-89
2022/01/04 00:10:01;;;;;;;8.43;3.88;;;;;;;7.04;96.04;100066.81;5009196;28;21179;-90
2022/01/04 00:15:10;;;;;;;9.57;3.90;;;;;;;7.04;96.48;100070.31;5012187;28;20048;-89
2022/01/04 00:17:36;;;;;;;8.38;3.95;;;;;;;7.02;96.33;100058.94;5012215;28;20121;-91
2022/01/04 00:20:03;;;;;;;8.85;4.00;;;;;;;7.04;96.47;100065.03;5021436;28;20029;-89
2022/01/04 00:22:29;;;;;;;8.15;4.18;;;;;;;7.04;96.65;100050.94;5028210;28;20022;-90
2022/01/04 00:24:54;;;;;;;8.35;3.85;;;;;;;6.99;96.57;100044.09;5013808;28;20546;-90
2022/01/04 00:27:19;;;;;;;9.23;4.03;;;;;;;7.02;96.72;100036.91;5013910;28;20163;-91
2022/01/04 00:29:45;;;;;;;6.35;3.70;;;;;;;7.01;96.71;100040.50;5011925;28;20113;-91
2022/01/04 00:32:11;;;;;;;8.93;3.60;;;;;;;6.90;96.86;100018.09;5017490;28;20507;-91
2022/01/04 00:34:36;;;;;;;6.68;3.60;;;;;;;6.96;97.07;100011.63;5019414;28;20361;-90
2022/01/04 00:37:02;;;;;;;7.93;4.07;;;;;;;6.95;97.37;100012.56;5020857;28;20040;-90
2022/01/04 00:39:27;;;;;;;6.53;3.65;;;;;;;6.90;97.24;99999.56;5008308;28;20058;-89
2022/01/04 00:41:53;;;;;;;8.77;4.28;;;;;;;6.89;97.35;100002.28;5017088;28;20044;-90
2022/01/04 00:44:18;;;;;;;9.48;4.20;;;;;;;6.91;97.61;99995.13;5007933;28;20495;-89
2022/01/04 00:46:43;;;;;;;7.15;3.90;;;;;;;6.85;97.79;99988.34;5014435;28;20043;-90
2022/01/04 00:49:09;;;;;;;9.75;4.07;;;;;;;6.90;97.55;99985.50;5007710;28;20030;-89
2022/01/04 00:51:35;;;;;;;6.75;3.92;;;;;;;6.89;97.78;99981.97;5024250;28;20033;-90
2022/01/04 00:54:01;;;;;;;9.50;4.40;;;;;;;6.81;97.61;99970.91;5010926;28;20084;-89
2022/01/04 00:56:26;;;;;;;8.80;4.38;;;;;;;6.90;97.64;99986.34;5024186;28;20433;-89
2022/01/04 00:58:51;;;;;;;7.53;4.45;;;;;;;6.89;97.31;99981.97;5021346;28;20071;-90
2022/01/04 01:01:17;;;;;;;9.73;4.47;;;;;;;6.90;97.87;99981.06;5011161;28;20384;-89
2022/01/04 01:03:42;;;;;;;4.78;3.70;;;;;;;6.91;97.06;99976.63;5011652;28;20455;-90
2022/01/04 01:06:09;;;;;;;9.75;4.00;;;;;;;6.89;97.47;99971.38;5014782;28;20041;-88
2022/01/04 01:08:34;;;;;;;9.43;4.10;;;;;;;6.88;97.30;99966.19;5015222;28;20383;-90
2022/01/04 01:11:00;;;;;;;6.75;4.13;;;;;;;6.85;97.28;99955.75;5011255;28;20030;-88
2022/01/04 01:13:25;;;;;;;7.35;4.32;;;;;;;6.86;97.35;99960.13;5010743;28;20025;-89
2022/01/04 01:15:50;;;;;;;6.45;3.97;;;;;;;6.83;97.41;99962.91;5016271;28;20394;-91
2022/01/04 01:18:17;;;;;;;12.10;3.90;;;;;;;6.83;97.44;99965.56;5011810;28;20030;-90
2022/01/04 01:20:46;;;;;;;7.40;3.88;;;;;;;6.83;97.34;99969.06;5010967;28;20018;-90
2022/01/04 01:23:11;;;;;;;6.80;3.55;;;;;;;6.81;97.31;99959.47;5010226;28;20084;-90
2022/01/04 01:25:37;;;;;;;5.80;3.58;;;;;;;6.83;97.29;99963.75;5012621;28;20021;-90
2022/01/04 01:28:02;;;;;;;5.28;3.10;;;;;;;6.81;97.25;99955.03;5017393;28;20403;-90
2022/01/04 01:30:29;;;;;;;5.78;3.55;;;;;;;6.77;97.24;99949.97;5011001;28;20045;-90
2022/01/04 01:32:54;;;;;;;7.07;3.58;;;;;;;6.74;97.52;99951.84;5010147;28;20034;-89
2022/01/04 01:35:20;;;;;;;8.35;3.00;;;;;;;6.77;97.28;99950.81;5043306;28;20030;-90
2022/01/04 01:37:46;;;;;;;7.22;3.45;;;;;;;6.77;97.24;99942.03;5027385;28;20101;-90
2022/01/04 01:40:12;;;;;;;7.80;3.30;;;;;;;6.78;97.38;99946.41;5015333;28;20056;-91
2022/01/04 01:42:37;;;;;;;5.75;3.25;;;;;;;6.78;97.29;99935.84;5010378;28;20034;-91
2022/01/04 01:45:03;;;;;;;5.78;3.28;;;;;;;6.78;97.36;99933.19;5011732;28;20430;-91
2022/01/04 01:47:29;;;;;;;6.25;3.80;;;;;;;6.72;97.24;99918.47;5021958;28;20061;-90
2022/01/04 01:49:54;;;;;;;6.50;3.75;;;;;;;6.72;97.31;99913.19;5010930;28;20612;-90
2022/01/04 01:52:20;;;;;;;5.55;3.95;;;;;;;6.72;97.42;99913.19;5010181;28;20034;-89
2022/01/04 01:54:45;;;;;;;6.95;4.00;;;;;;;6.69;97.21;99914.19;5011649;28;20084;-89
2022/01/04 01:57:11;;;;;;;6.32;3.85;;;;;;;6.70;97.37;99918.56;5015444;28;20411;-89
2022/01/04 01:59:36;;;;;;;5.75;3.35;;;;;;;6.69;97.52;99918.66;5012490;28;20550;-89
2022/01/04 02:02:01;;;;;;;5.70;3.63;;;;;;;6.71;97.57;99924.69;5014061;28;20504;-88
2022/01/04 02:04:27;;;;;;;5.97;3.88;;;;;;;6.69;97.26;99914.19;5030619;28;20030;-88
2022/01/04 02:06:52;;;;;;;8.07;4.10;;;;;;;6.70;97.52;99913.25;5026105;28;20379;-89
2022/01/04 02:09:18;;;;;;;8.45;4.13;;;;;;;6.67;97.32;99908.13;5011104;28;20026;-89
2022/01/04 02:11:43;;;;;;;7.07;4.10;;;;;;;6.69;97.13;99906.28;5010443;28;20522;-89
2022/01/04 02:14:09;;;;;;;6.68;4.07;;;;;;;6.62;97.22;99882.84;5013482;28;20040;-89
2022/01/04 02:16:34;;;;;;;7.25;3.60;;;;;;;6.71;97.41;99895.59;5019947;28;20037;-90
2022/01/04 02:19:01;;;;;;;8.10;4.30;;;;;;;6.68;97.32;99875.44;5016497;28;20040;-89
2022/01/04 02:21:26;;;;;;;6.07;4.00;;;;;;;6.65;97.36;99874.78;5010214;28;20104;-89
2022/01/04 02:23:51;;;;;;;6.13;3.50;;;;;;;6.66;97.69;99881.75;5023280;28;20104;-89
2022/01/04 02:26:18;;;;;;;7.63;3.63;;;;;;;6.65;97.36;99880.91;5041814;28;20099;-88
2022/01/04 02:28:43;;;;;;;6.35;3.92;;;;;;;6.59;97.47;99859.19;5046026;28;20041;-89
2022/01/04 02:31:08;;;;;;;7.03;3.60;;;;;;;6.65;97.42;99877.41;5030452;28;20029;-89
2022/01/04 02:33:34;;;;;;;6.00;3.83;;;;;;;6.63;97.37;99876.63;5026297;28;20049;-89
2022/01/04 02:35:59;;;;;;;9.25;4.22;;;;;;;6.60;97.02;99869.69;5021372;28;20083;-89
2022/01/04 02:38:24;;;;;;;5.07;3.30;;;;;;;6.63;97.31;99868.69;5024438;28;20022;-89
2022/01/04 02:40:49;;;;;;;5.22;3.63;;;;;;;6.61;97.29;99865.28;5008892;28;20383;-88
2022/01/04 02:43:15;;;;;;;5.32;3.30;;;;;;;6.60;97.16;99856.47;5009854;28;20065;-90
2022/01/04 02:45:40;;;;;;;6.88;3.58;;;;;;;6.60;96.74;99864.41;5013007;28;20071;-89
2022/01/04 02:48:05;;;;;;;5.82;3.42;;;;;;;6.54;97.25;99845.34;5014091;28;20478;-88
2022/01/04 02:50:31;;;;;;;4.63;3.50;;;;;;;6.58;97.26;99852.22;5009893;28;20159;-88
2022/01/04 02:52:56;;;;;;;4.03;3.33;;;;;;;6.56;97.23;99846.13;5008098;28;20034;-89
2022/01/04 02:55:21;;;;;;;7.03;3.55;;;;;;;6.56;97.16;99843.47;5010189;28;20041;-89
2022/01/04 02:57:47;;;;;;;7.93;3.60;;;;;;;6.56;97.30;99838.19;5027170;28;20040;-90
2022/01/04 03:00:15;;;;;;;5.90;3.25;;;;;;;6.52;97.22;99831.34;5012871;28;20569;-88
2022/01/04 03:02:41;;;;;;;5.50;3.35;;;;;;;6.49;97.38;99827.94;5015567;28;20040;-89
2022/01/04 03:05:07;;;;;;;3.83;3.10;;;;;;;6.53;97.19;99827.78;5016924;28;20030;-89
2022/01/04 03:07:33;;;;;;;6.18;3.67;;;;;;;6.47;97.22;99816.56;5017152;28;20057;-90
2022/01/04 03:09:58;;;;;;;6.55;3.85;;;;;;;6.47;97.13;99802.50;5008709;28;20053;-89
2022/01/04 03:12:24;;;;;;;4.15;3.28;;;;;;;6.47;97.50;99808.63;5026831;28;20029;-90
2022/01/04 03:14:49;;;;;;;4.63;3.15;;;;;;;6.44;97.54;99802.69;5021587;28;20041;-89
2022/01/04 03:17:15;;;;;;;5.95;3.45;;;;;;;6.42;97.36;99791.31;5018863;28;20034;-89
2022/01/04 03:19:40;;;;;;;5.65;2.90;;;;;;;6.45;97.41;99796.44;5008355;28;20030;-89
2022/01/04 03:22:05;;;;;;;5.50;3.20;;;;;;;6.46;97.64;99792.88;5011406;28;20471;-89
2022/01/04 03:24:31;;;;;;;6.40;3.13;;;;;;;6.43;97.33;99782.44;5010948;28;20022;-89
2022/01/04 03:26:56;;;;;;;6.22;3.28;;;;;;;6.45;97.29;99775.31;5017273;28;20468;-89
2022/01/04 03:29:23;;;;;;;6.25;3.70;;;;;;;6.43;97.43;99770.06;5014617;28;20033;-89
2022/01/04 03:31:48;;;;;;;6.63;3.10;;;;;;;6.43;97.38;99769.22;5030117;28;20029;-88
2022/01/04 03:34:13;;;;;;;4.75;3.15;;;;;;;6.42;97.43;99760.44;5022566;28;20046;-89
2022/01/04 03:36:40;;;;;;;4.78;3.00;;;;;;;6.45;97.09;99757.66;5020811;28;20037;-91
2022/01/04 03:39:07;;;;;;;5.00;3.25;;;;;;;6.42;97.11;99743.75;5008931;28;20022;-89
2022/01/04 03:41:37;;;;;;;3.40;2.92;;;;;;;6.42;96.96;99744.59;5007136;28;20064;-89
2022/01/04 03:44:03;;;;;;;4.85;2.55;;;;;;;6.38;97.27;99735.09;5007846;28;20032;-89
2022/01/04 03:46:29;;;;;;;4.05;2.65;;;;;;;6.45;97.05;99733.03;5014931;28;20022;-88
2022/01/04 03:48:55;;;;;;;5.10;2.45;;;;;;;6.44;97.08;99729.53;5007478;28;20044;-89
2022/01/04 03:51:20;;;;;;;3.05;2.75;;;;;;;6.45;97.07;99719.81;5011106;28;20408;-89
2022/01/04 03:53:45;;;;;;;6.63;2.72;;;;;;;6.42;96.82;99717.31;5022083;28;20050;-89
2022/01/04 03:56:11;;;;;;;6.18;3.70;;;;;;;6.47;96.75;99716.13;5013210;28;20077;-89
2022/01/04 03:58:36;;;;;;;4.40;2.70;;;;;;;6.43;96.95;99698.72;5026073;28;20041;-89
2022/01/04 04:01:02;;;;;;;6.93;3.10;;;;;;;6.44;97.02;99704.88;5012507;28;20026;-90
2022/01/04 04:03:28;;;;;;;3.90;2.70;;;;;;;6.45;97.17;99702.16;5024247;28;20461;-89
2022/01/04 04:05:54;;;;;;;6.38;2.47;;;;;;;6.39;97.03;99683.94;5016714;28;20026;-89
2022/01/04 04:08:19;;;;;;;4.65;2.70;;;;;;;6.45;97.10;99690.72;5025495;28;20041;-90
2022/01/04 04:10:45;;;;;;;4.07;2.70;;;;;;;6.42;97.33;99688.22;5007827;28;20035;-89
2022/01/04 04:13:10;;;;;;;3.85;2.80;;;;;;;6.45;97.23;99681.00;5008900;28;20021;-89
2022/01/04 04:15:40;;;;;;;5.03;2.75;;;;;;;6.45;97.23;99673.06;5010870;28;20336;-90
2022/01/04 04:18:05;;;;;;;6.18;3.40;;;;;;;6.37;96.89;99659.41;5021781;28;20018;-90
2022/01/04 04:20:30;;;;;;;5.30;3.22;;;;;;;6.44;97.45;99671.38;5008445;28;20302;-90
2022/01/04 04:22:55;;;;;;;4.78;3.78;;;;;;;6.45;97.05;99661.66;5010478;28;20126;-91
2022/01/04 04:25:21;;;;;;;8.85;3.90;;;;;;;6.40;97.06;99651.31;5008822;28;20415;-90
2022/01/04 04:27:46;;;;;;;5.53;3.70;;;;;;;6.41;97.05;99653.03;5020509;28;20083;-91
2022/01/04 04:30:11;;;;;;;8.80;4.05;;;;;;;6.38;97.12;99644.41;5011370;28;20034;-90
2022/01/04 04:32:37;;;;;;;5.00;3.97;;;;;;;6.39;97.66;99652.22;5012079;28;20107;-91
2022/01/04 04:35:03;;;;;;;6.88;4.43;;;;;;;6.39;97.31;99657.53;5014496;28;20045;-90
2022/01/04 04:37:28;;;;;;;5.72;4.60;;;;;;;6.37;97.35;99659.41;5019784;28;20033;-90
2022/01/04 04:39:54;;;;;;;8.18;4.82;;;;;;;6.34;97.48;99659.56;5023027;28;20029;-90
2022/01/04 04:42:19;;;;;;;6.72;5.35;;;;;;;6.33;97.99;99649.94;5024335;28;20117;-91
2022/01/04 04:44:46;;;;;;;8.82;5.88;;;;;;;6.35;97.96;99650.69;5011837;28;20491;-88
2022/01/04 04:47:11;;;;;;;8.60;6.00;;;;;;;6.36;97.88;99647.13;5037523;28;20034;-88
2022/01/04 04:49:37;;;;;;;8.77;6.32;;;;;;;6.27;97.98;99629.13;5011692;28;20032;-88
2022/01/04 04:52:02;;;;;;;9.48;6.70;;;;;;;6.34;98.05;99642.84;5016443;28;20382;-89
2022/01/04 04:54:29;;;;;;;10.40;6.57;;;;;;;6.35;98.11;99645.41;5031361;28;20034;-89
2022/01/04 04:56:54;;;;;;;9.57;6.65;;;;;;;6.38;98.16;99652.31;5016704;28;20399;-89
2022/01/04 04:59:19;;;;;;;9.00;6.75;;;;;;;6.39;98.12;99652.22;5012643;28;20045;-89
2022/01/04 05:01:45;;;;;;;10.93;7.00;;;;;;;6.40;98.00;99653.13;5016302;28;20116;-90
2022/01/04 05:04:10;;;;;;;10.05;7.13;;;;;;;6.36;98.11;99646.28;5012242;28;20033;-90
2022/01/04 05:06:35;;;;;;;13.57;7.93;;;;;;;6.37;97.87;99656.75;5020420;28;20025;-89
2022/01/04 05:09:01;;;;;;;9.95;7.40;;;;;;;6.40;98.38;99647.81;5016037;28;20025;-89
2022/01/04 05:11:26;;;;;;;9.10;7.15;;;;;;;6.39;98.00;99649.59;5020052;28;20017;-89
2022/01/04 05:13:52;;;;;;;10.32;7.20;;;;;;;6.39;98.02;99641.66;5010419;28;20022;-88
2022/01/04 05:16:17;;;;;;;12.63;8.00;;;;;;;6.38;98.36;99641.75;5018019;28;20034;-89
2022/01/04 05:18:43;;;;;;;11.13;8.05;;;;;;;6.38;98.05;99642.59;5015518;28;20021;-89
2022/01/04 05:21:08;;;;;;;12.68;8.18;;;;;;;6.34;98.24;99613.78;5014255;28;20361;-88
2022/01/04 05:23:33;;;;;;;11.77;8.00;;;;;;;6.33;98.45;99618.22;5011450;28;20464;-88
2022/01/04 05:25:59;;;;;;;11.38;8.02;;;;;;;6.32;98.78;99619.16;5017527;28;20109;-89
2022/01/04 05:28:25;;;;;;;14.60;8.65;;;;;;;6.34;98.45;99621.72;5030052;28;20101;-89
2022/01/04 05:30:50;;;;;;;13.20;8.68;;;;;;;6.35;98.13;99623.41;5020479;28;20436;-90
2022/01/04 05:33:15;;;;;;;13.43;8.40;;;;;;;6.35;98.37;99618.97;5025996;28;20057;-89
2022/01/04 05:35:41;;;;;;;12.00;8.30;;;;;;;6.33;98.49;99609.44;5027044;28;20041;-89
2022/01/04 05:38:06;;;;;;;10.80;8.52;;;;;;;6.31;98.50;99606.88;5030929;28;20479;-90
2022/01/04 05:40:32;;;;;;;11.50;7.97;;;;;;;6.36;98.48;99604.00;5012462;28;20049;-90
2022/01/04 05:42:57;;;;;;;11.30;7.80;;;;;;;6.35;98.36;99597.81;5012606;28;20026;-89
2022/01/04 05:45:22;;;;;;;12.85;8.27;;;;;;;6.35;98.16;99592.53;5016749;28;20437;-87
2022/01/04 05:47:47;;;;;;;10.63;7.72;;;;;;;6.35;98.02;99592.53;5052430;28;20014;-88
2022/01/04 05:50:13;;;;;;;12.55;7.80;;;;;;;6.34;98.32;99590.84;5051190;28;20060;-90
2022/01/04 05:52:38;;;;;;;11.63;7.97;;;;;;;6.35;98.02;99594.34;5039754;28;20093;-89
2022/01/04 05:55:04;;;;;;;12.20;8.00;;;;;;;6.35;98.24;99591.69;5033047;28;20025;-90
2022/01/04 05:57:30;;;;;;;13.13;8.68;;;;;;;6.33;98.32;99591.78;5031902;28;20083;-89
2022/01/04 05:59:55;;;;;;;13.20;7.90;;;;;;;6.31;98.34;99584.88;5023957;28;20479;-88
2022/01/04 06:02:20;;;;;;;11.38;8.10;;;;;;;6.34;98.40;99585.56;5010584;28;20070;-88
2022/01/04 06:04:46;;;;;;;10.63;8.55;;;;;;;6.33;98.22;99580.38;5020700;28;20026;-89
2022/01/04 06:07:11;;;;;;;11.55;8.05;;;;;;;6.35;98.14;99581.97;5028637;28;20042;-89
2022/01/04 06:09:46;;;;;;;14.43;8.55;;;;;;;6.36;98.16;99588.13;5016510;28;20080;-89
2022/01/04 06:14:52;;;;;;;11.27;7.65;;;;;;;6.33;98.43;99572.44;5022430;28;20049;-89
2022/01/04 06:17:19;;;;;;;12.00;8.07;;;;;;;6.28;98.92;99575.34;5028024;28;20425;-89
2022/01/04 06:19:44;;;;;;;11.63;8.05;;;;;;;6.25;98.96;99570.19;5010917;28;20029;-89
2022/01/04 06:22:10;;;;;;;14.43;8.60;;;;;;;6.22;99.27;99576.50;5010045;28;20483;-89
2022/01/04 06:24:36;;;;;;;13.65;8.90;;;;;;;6.16;100.00;99571.53;5010676;28;20037;-89
2022/01/04 06:27:10;;;;;;;14.15;9.02;;;;;;;6.06;100.00;99557.13;5026925;28;20030;-89
2022/01/04 06:29:38;;;;;;;13.80;9.00;;;;;;;6.09;100.00;99556.94;5029824;28;20030;-90
2022/01/04 06:32:05;;;;;;;16.05;9.10;;;;;;;6.05;100.00;99557.19;5024636;28;20248;-91
2022/01/04 06:34:30;;;;;;;13.38;9.07;;;;;;;5.97;100.00;99558.44;5023771;28;20049;-92
2022/01/04 06:36:56;;;;;;;14.30;9.23;;;;;;;5.97;100.00;99561.06;5026161;28;20376;-91
2022/01/04 06:39:21;;;;;;;15.88;9.27;;;;;;;5.96;100.00;99564.66;5029103;28;20029;-92
2022/01/04 06:41:46;;;;;;;16.30;9.30;;;;;;;5.96;100.00;99553.25;5028295;28;20029;-91
2022/01/04 06:44:12;;;;;;;15.85;9.10;;;;;;;5.93;100.00;99553.41;5018138;28;20033;-91
2022/01/04 06:46:38;;;;;;;12.68;9.27;;;;;;;5.86;100.00;99547.56;5024695;28;20120;-90
2022/01/04 06:49:04;;;;;;;14.82;9.40;;;;;;;5.89;100.00;99565.88;5027256;28;20474;-93
2022/01/04 06:51:29;;;;;;;16.90;9.70;;;;;;;5.87;100.00;99558.97;5028268;28;20163;-90
2022/01/04 06:53:54;;;;;;;16.45;9.88;;;;;;;5.84;100.00;99538.00;5016445;28;20026;-90
2022/01/04 06:56:20;;;;;;;17.42;9.90;;;;;;;5.83;100.00;99516.03;5023210;28;20533;-89
2022/01/04 06:58:45;;;;;;;13.02;8.98;;;;;;;5.89;100.00;99535.97;5021961;28;20101;-90
2022/01/04 07:01:10;;;;;;;13.82;8.80;;;;;;;5.86;100.00;99537.00;5015063;28;20022;-91
2022/01/04 07:03:35;;;;;;;15.50;9.80;;;;;;;5.85;100.00;99535.31;5021299;28;20021;-91
2022/01/04 07:06:01;;;;;;;15.70;9.70;;;;;;;5.82;100.00;99527.53;5024706;28;20028;-90
2022/01/04 07:08:26;;;;;;;20.88;9.88;;;;;;;5.84;100.00;99538.84;5021056;28;20031;-91
2022/01/04 07:10:51;;;;;;;14.73;8.93;;;;;;;5.83;100.00;99536.31;5025946;28;20029;-91
2022/01/04 07:13:17;;;;;;;18.50;10.50;;;;;;;5.82;100.00;99530.19;5029092;28;20029;-90
2022/01/04 07:15:42;;;;;;;16.50;9.43;;;;;;;5.82;100.00;99513.50;5020960;28;20040;-90
2022/01/04 07:18:08;;;;;;;15.68;9.63;;;;;;;5.84;100.00;99523.00;5008833;28;20033;-90
2022/01/04 07:20:33;;;;;;;16.17;10.40;;;;;;;5.81;100.00;99510.00;5012394;28;20026;-93
2022/01/04 07:22:58;;;;;;;17.10;9.48;;;;;;;5.82;100.00;99521.41;5030205;28;20029;-94
2022/01/04 07:25:24;;;;;;;16.10;9.68;;;;;;;5.81;100.00;99498.56;5033315;28;20025;-93
2022/01/04 07:27:49;;;;;;;19.23;9.88;;;;;;;5.81;100.00;99494.16;5039659;28;20060;-91
2022/01/04 07:30:15;;;;;;;16.48;9.18;;;;;;;5.80;100.00;99502.97;5043230;28;20056;-93
2022/01/04 07:32:40;;;;;;;18.48;9.77;;;;;;;5.78;100.00;99496.94;5030132;28;20022;-95
2022/01/04 07:35:06;;;;;;;17.10;10.57;;;;;;;5.77;100.00;99497.88;5024099;28;20045;-95
2022/01/04 07:37:31;;;;;;;16.23;9.77;;;;;;;5.75;100.00;99497.94;5032029;28;20064;-93
2022/01/04 07:39:56;;;;;;;19.13;10.50;;;;;;;5.75;100.00;99499.75;5013933;28;20037;-93
2022/01/04 07:42:21;;;;;;;15.07;9.20;;;;;;;5.79;100.00;99506.56;5017317;28;20575;-96
2022/01/04 07:44:47;;;;;;;17.98;9.98;;;;;;;5.79;100.00;99500.44;5018403;28;20030;-94
2022/01/04 07:47:12;;;;;;;31.40;12.15;;;;;;;5.74;100.00;99498.88;5013603;28;20030;-93
2022/01/04 07:49:37;;;;;;;23.05;10.52;;;;;;;5.80;100.00;99500.34;5016593;28;20032;-93
2022/01/04 07:52:03;;;;;;;25.15;11.43;;;;;;;5.78;100.00;99499.59;5033801;28;20029;-95
2022/01/04 07:54:28;;;;;;;27.50;11.27;;;;;;;5.78;100.00;99499.59;5036395;28;20029;-95
2022/01/04 07:56:54;;;;;;;18.35;9.80;;;;;;;5.78;100.00;99493.47;5027938;28;20085;-90
2022/01/04 07:59:20;;;;;;;14.50;9.43;;;;;;;5.80;100.00;99492.44;5034179;28;20013;-88
2022/01/04 08:01:45;;;;;;;17.27;9.93;;;;;;;5.79;100.00;99492.53;5034612;28;20091;-92
2022/01/04 08:04:10;;;;;;;18.88;10.00;;;;;;;5.78;100.00;99489.03;5035378;28;20022;-92
2022/01/04 08:06:36;;;;;;;19.45;9.68;;;;;;;5.76;100.00;99493.53;5045242;28;20029;-93
2022/01/04 08:09:02;;;;;;;17.73;9.95;;;;;;;5.76;100.00;99488.25;5032578;28;20038;-92
2022/01/04 08:11:27;;;;;;;16.83;9.73;;;;;;;5.79;100.00;99492.53;5025021;28;20022;-90
2022/01/04 08:13:53;;;;;;;18.25;10.13;;;;;;;5.75;100.00;99478.63;5024183;28;20173;-95
2022/01/04 08:16:18;;;;;;;17.58;9.23;;;;;;;5.76;100.00;99488.25;5043758;28;20029;-94
2022/01/04 08:18:44;;;;;;;18.38;9.75;;;;;;;5.82;100.00;99501.13;5032595;28;20033;-92
2022/01/04 08:21:09;;;;;;;15.90;9.45;;;;;;;5.77;100.00;99482.03;5023036;28;20174;-96
2022/01/04 08:23:35;;;;;;;15.07;9.23;;;;;;;5.76;100.00;99475.03;5051924;28;20033;-96
2022/01/04 08:26:00;;;;;;;16.88;9.27;;;;;;;5.85;100.00;99486.91;5037467;28;20115;-92
2022/01/04 08:28:26;;;;;;;14.57;9.10;;;;;;;5.56;100.00;99435.63;5108180;22;20084;-96
2022/01/04 08:30:51;;;;;;;17.13;9.30;;;;;;;5.74;100.00;99474.28;5041924;28;20017;-93
2022/01/04 08:33:17;;;;;;;19.10;9.82;;;;;;;5.74;100.00;99463.72;5053792;28;20353;-95
2022/01/04 08:35:43;;;;;;;16.65;9.88;;;;;;;5.68;100.00;99466.66;5035434;28;20048;-89
2022/01/04 08:38:08;;;;;;;21.33;9.60;;;;;;;5.60;100.00;99451.25;5026994;28;20068;-95
2022/01/04 08:40:34;;;;;;;20.02;9.82;;;;;;;5.78;100.00;99483.75;5025707;28;20104;-94
2022/01/04 08:43:00;;;;;;;14.90;9.55;;;;;;;5.76;100.00;99488.25;5020361;28;20025;-93
2022/01/04 08:45:26;;;;;;;18.00;9.45;;;;;;;5.69;100.00;99478.97;5039300;28;20479;-94
2022/01/04 08:47:55;;;;;;;14.15;9.73;;;;;;;5.88;100.00;99521.06;5135211;22;20121;-96
2022/01/04 08:50:21;;;;;;;17.55;8.80;;;;;;;5.90;100.00;99527.13;5227666;22;20076;-96
2022/01/04 08:52:51;;;;;;;19.33;9.73;;;;;;;5.58;100.00;99478.66;5121039;22;20081;-96
2022/01/04 08:55:17;;;;;;;16.83;9.75;;;;;;;5.63;100.00;99500.38;5075852;28;20021;-96
2022/01/04 08:57:42;;;;;;;18.95;9.15;;;;;;;5.70;100.00;99512.34;5083960;23;20085;-96
2022/01/04 09:02:37;;;;;;;17.73;10.10;;;;;;;5.94;100.00;99540.13;4993116;28;20124;-96
2022/01/04 09:05:03;;;;;;;24.33;12.10;;;;;;;5.78;100.00;99509.31;5165610;22;20109;-96
2022/01/04 09:07:29;;;;;;;21.23;11.13;;;;;;;5.78;100.00;99496.09;5098309;22;20054;-96
2022/01/04 09:09:54;;;;;;;19.88;10.98;;;;;;;5.89;100.00;99509.56;5038744;28;20036;-96
2022/01/04 09:12:23;;;;;;;20.10;10.90;;;;;;;5.71;100.00;99469.16;5018409;28;20026;-96
2022/01/04 09:14:58;;;;;;;19.48;10.85;;;;;;;5.88;100.00;99489.38;5024060;28;20018;-96
2022/01/04 09:20:11;;;;;;;20.73;11.90;;;;;;;5.84;100.00;99462.28;4999630;28;20080;-96
2022/01/04 09:22:37;;;;;;;22.40;12.20;;;;;;;6.14;100.00;99509.16;5113407;22;20045;-95
2022/01/04 09:25:06;;;;;;;22.25;12.48;;;;;;;6.16;100.00;99499.38;5253729;22;20064;-96
2022/01/04 09:27:32;;;;;;;20.65;11.65;;;;;;;5.87;100.00;99459.50;5095952;22;20038;-94
2022/01/04 09:30:02;;;;;;;24.70;13.32;;;;;;;6.02;100.00;99483.38;5039390;28;20058;-96
2022/01/04 09:32:27;;;;;;;23.27;12.77;;;;;;;6.07;100.00;99502.50;5032752;28;20010;-96
2022/01/04 09:34:53;;;;;;;27.52;13.85;;;;;;;6.19;100.00;99530.91;5022218;28;20483;-95
2022/01/04 09:37:18;;;;;;;25.00;14.07;;;;;;;6.06;100.00;99504.31;5010231;28;20026;-96
2022/01/04 09:39:44;;;;;;;25.65;13.57;;;;;;;6.18;100.00;99518.63;5007824;28;20020;-96
2022/01/04 09:42:09;;;;;;;27.33;13.90;;;;;;;6.12;100.00;99492.53;5022028;28;20010;-96
2022/01/04 09:44:35;;;;;;;25.90;13.60;;;;;;;6.18;100.00;99508.91;5020638;28;20049;-94
2022/01/04 09:47:03;;;;;;;33.20;16.35;;;;;;;6.17;100.00;99511.63;5004591;28;20053;-92
2022/01/04 09:49:29;;;;;;;30.23;14.80;;;;;;;6.32;100.00;99524.03;4994194;28;20468;-94
2022/01/04 09:51:56;;;;;;;31.13;15.98;;;;;;;6.24;100.00;99507.72;4993117;28;20229;-94
2022/01/04 09:54:26;;;;;;;28.58;15.20;;;;;;;6.34;100.00;99521.28;5004854;28;20045;-96
2022/01/04 09:56:52;;;;;;;34.50;16.98;;;;;;;6.42;100.00;99534.94;5003289;28;20408;-94
2022/01/04 09:59:18;;;;;;;35.88;18.10;;;;;;;6.43;100.00;99531.34;4995830;28;20026;-95
2022/01/04 10:01:49;;;;;;;31.98;17.33;;;;;;;6.43;100.00;99529.56;5014049;28;20291;-95
2022/01/04 10:04:15;;;;;;;37.95;18.50;;;;;;;6.42;100.00;99535.78;5012359;28;20029;-95
2022/01/04 10:06:56;;;;;;;36.13;17.92;;;;;;;6.43;100.00;99532.19;5000703;28;20030;-94
2022/01/04 10:09:34;;;;;;;35.38;17.92;;;;;;;6.45;100.00;99522.41;4992994;28;20027;-93
2022/01/04 10:12:00;;;;;;;33.47;17.63;;;;;;;6.45;100.00;99524.19;5000429;28;20018;-94
2022/01/04 10:14:28;;;;;;;37.97;19.08;;;;;;;6.46;100.00;99497.69;5000614;28;20226;-95
2022/01/04 10:16:56;;;;;;;37.05;19.55;;;;;;;6.53;100.00;99506.13;5009869;28;20048;-96
2022/01/04 10:19:31;;;;;;;38.47;19.15;;;;;;;6.60;100.00;99493.41;5007712;28;20041;-92
2022/01/04 10:22:15;;;;;;;37.72;18.30;;;;;;;6.69;100.00;99493.75;4995806;28;20064;-94
2022/01/04 10:24:41;;;;;;;;;;;;;;;6.79;100.00;99488.78;4993895;28;20058;-93
2022/01/04 10:27:34;;;;;;;35.75;18.75;;;;;;;6.83;99.51;99492.97;4998604;28;20397;-94
2022/01/04 10:30:23;;;;;;;34.90;18.33;;;;;;;6.85;99.40;99490.22;4997420;28;20028;-94
2022/01/04 10:33:01;;;;;;;38.85;18.70;;;;;;;6.83;99.03;99506.19;5011084;28;20025;-93
2022/01/04 10:36:11;;;;;;;38.53;19.20;;;;;;;6.83;99.21;99498.25;5009648;28;20060;-95
2022/01/04 10:38:41;;;;;;;36.13;18.30;;;;;;;6.82;98.88;99490.44;4950718;29;20090;-94
2022/01/04 10:41:20;;;;;;;36.13;19.23;;;;;;;6.89;98.60;99489.97;4950915;29;20039;-95
2022/01/04 10:43:50;;;;;;;37.30;20.20;;;;;;;6.86;98.57;99476.94;4950733;29;20042;-96
2022/01/04 10:46:21;;;;;;;36.72;19.67;;;;;;;6.91;98.49;99484.59;4949462;29;20051;-94
2022/01/04 10:48:49;;;;;;;35.90;18.27;;;;;;;6.94;98.60;99477.34;4950039;29;20023;-94
2022/01/04 10:51:22;;;;;;;38.63;19.42;;;;;;;7.01;98.00;99491.06;4950158;29;20028;-95
2022/01/04 10:53:51;;;;;;;36.72;19.75;;;;;;;7.06;98.26;99489.00;4950214;29;20041;-94
2022/01/04 10:56:23;;;;;;;40.85;19.95;;;;;;;7.09;97.76;99495.91;4949178;29;20039;-94
2022/01/04 10:58:51;;;;;;;37.00;21.10;;;;;;;7.11;97.66;99491.41;4950225;29;20118;-95
2022/01/04 11:01:19;;;;;;;39.22;20.88;;;;;;;7.12;97.64;99493.09;4951972;29;20039;-93
2022/01/04 11:03:51;;;;;;;35.45;19.70;;;;;;;7.16;97.41;99497.28;4953763;29;20039;-94
2022/01/04 11:06:22;;;;;;;37.40;20.52;;;;;;;7.13;97.04;99490.34;4949466;29;20155;-94
2022/01/04 11:08:48;;;;;;;39.92;20.30;;;;;;;7.08;97.50;99483.63;4950580;29;20070;-91
2022/01/04 11:11:13;;;;;;;35.45;20.38;;;;;;;7.10;97.89;99479.94;4948596;29;20027;-93
2022/01/04 11:16:14;;;;;;;37.10;21.08;;;;;;;7.10;97.31;99476.44;5020842;23;20058;-96
2022/01/04 11:18:46;;;;;;;37.75;20.20;;;;;;;7.16;97.20;99484.03;5013997;28;20041;-96
2022/01/04 11:21:13;;;;;;;40.45;19.98;;;;;;;7.20;97.16;99474.97;5013572;28;20033;-91
2022/01/04 11:23:39;;;;;;;37.33;20.70;;;;;;;7.21;96.64;99487.25;5012261;28;20387;-93
2022/01/04 11:26:05;;;;;;;37.28;21.17;;;;;;;7.18;96.96;99488.28;5013524;28;20025;-92
2022/01/04 11:28:30;;;;;;;41.15;20.77;;;;;;;7.12;96.60;99490.44;5032447;28;20061;-96
2022/01/04 11:31:33;;;;;;;39.55;21.08;;;;;;;7.13;97.03;99498.28;5128718;23;20084;-92
2022/01/04 11:34:04;;;;;;;39.42;20.40;;;;;;;7.12;96.88;99490.44;5025230;28;20029;-95
2022/01/04 11:36:34;;;;;;;39.38;20.77;;;;;;;7.12;96.95;99485.16;5030464;28;20017;-96
2022/01/04 11:39:00;;;;;;;34.72;20.00;;;;;;;7.09;96.80;99480.03;5024908;28;20006;-96
2022/01/04 11:41:41;;;;;;;34.28;18.40;;;;;;;7.17;96.51;99494.53;5024405;28;20056;-96